sensor_id;sensor_type;location;lat;lon;timestamp;pressure;altitude;pressure_sealevel;temperature;humidity
70468;BME280;57934;51.532;7.684;2023-02-28T00:00:28;101782.81;;;-1.01;82.96
70468;BME280;57934;51.532;7.684;2023-02-28T00:02:54;101781.22;;;-1.04;83.07
70468;BME280;57934;51.532;7.684;2023-02-28T00:05:22;101778.63;;;-1.04;83.29
70468;BME280;57934;51.532;7.684;2023-02-28T00:07:48;101776.16;;;-1.05;82.39
70468;BME280;57934;51.532;7.684;2023-02-28T00:10:19;101783.22;;;-1.09;82.97
70468;BME280;57934;51.532;7.684;2023-02-28T00:12:47;101785.88;;;-1.10;83.15
70468;BME280;57934;51.532;7.684;2023-02-28T00:15:13;101772.94;;;-1.10;83.23
70468;BME280;57934;51.532;7.684;2023-02-28T00:17:39;101780.81;;;-1.12;83.25
70468;BME280;57934;51.532;7.684;2023-02-28T00:20:06;101779.19;;;-1.14;83.31
70468;BME280;57934;51.532;7.684;2023-02-28T00:22:45;101782.78;;;-1.17;83.98
70468;BME280;57934;51.532;7.684;2023-02-28T00:25:14;101782.88;;;-1.18;83.98
70468;BME280;57934;51.532;7.684;2023-02-28T00:27:41;101778.53;;;-1.18;83.55
70468;BME280;57934;51.532;7.684;2023-02-28T00:30:09;101788.19;;;-1.22;83.86
70468;BME280;57934;51.532;7.684;2023-02-28T00:32:37;101780.69;;;-1.26;83.94
70468;BME280;57934;51.532;7.684;2023-02-28T00:35:03;101775.56;;;-1.28;84.79
70468;BME280;57934;51.532;7.684;2023-02-28T00:37:29;101778.25;;;-1.29;84.83
70468;BME280;57934;51.532;7.684;2023-02-28T00:39:55;101775.72;;;-1.31;84.47
70468;BME280;57934;51.532;7.684;2023-02-28T00:42:22;101770.72;;;-1.34;84.33
70468;BME280;57934;51.532;7.684;2023-02-28T00:44:48;101779.50;;;-1.36;85.11
70468;BME280;57934;51.532;7.684;2023-02-28T00:47:14;101776.66;;;-1.32;84.57
70468;BME280;57934;51.532;7.684;2023-02-28T00:49:40;101786.19;;;-1.32;85.00
70468;BME280;57934;51.532;7.684;2023-02-28T00:52:06;101776.66;;;-1.32;84.88
70468;BME280;57934;51.532;7.684;2023-02-28T00:54:32;101775.66;;;-1.29;85.35
70468;BME280;57934;51.532;7.684;2023-02-28T00:56:58;101779.66;;;-1.24;85.60
70468;BME280;57934;51.532;7.684;2023-02-28T00:59:24;101782.09;;;-1.21;85.28
70468;BME280;57934;51.532;7.684;2023-02-28T01:01:50;101778.94;;;-1.26;84.96
70468;BME280;57934;51.532;7.684;2023-02-28T01:04:16;101786.53;;;-1.23;84.76
70468;BME280;57934;51.532;7.684;2023-02-28T01:06:42;101770.66;;;-1.32;84.58
70468;BME280;57934;51.532;7.684;2023-02-28T01:09:10;101772.63;;;-1.37;85.01
70468;BME280;57934;51.532;7.684;2023-02-28T01:11:36;101771.94;;;-1.41;85.03
70468;BME280;57934;51.532;7.684;2023-02-28T01:14:03;101771.13;;;-1.41;85.47
70468;BME280;57934;51.532;7.684;2023-02-28T01:16:30;101774.78;;;-1.46;85.74
70468;BME280;57934;51.532;7.684;2023-02-28T01:18:56;101774.94;;;-1.49;85.96
70468;BME280;57934;51.532;7.684;2023-02-28T01:21:22;101773.34;;;-1.51;85.99
70468;BME280;57934;51.532;7.684;2023-02-28T01:23:49;101773.41;;;-1.53;86.57
70468;BME280;57934;51.532;7.684;2023-02-28T01:26:21;101775.31;;;-1.56;86.46
70468;BME280;57934;51.532;7.684;2023-02-28T01:28:49;101778.00;;;-1.58;87.15
70468;BME280;57934;51.532;7.684;2023-02-28T01:31:15;101778.75;;;-1.56;87.08
70468;BME280;57934;51.532;7.684;2023-02-28T01:33:42;101775.41;;;-1.58;87.32
70468;BME280;57934;51.532;7.684;2023-02-28T01:36:13;101774.75;;;-1.61;87.55
70468;BME280;57934;51.532;7.684;2023-02-28T01:38:39;101773.13;;;-1.64;86.98
70468;BME280;57934;51.532;7.684;2023-02-28T01:41:06;101774.94;;;-1.66;87.51
70468;BME280;57934;51.532;7.684;2023-02-28T01:46:09;101765.78;;;-1.72;87.95
70468;BME280;57934;51.532;7.684;2023-02-28T01:48:38;101778.00;;;-1.75;87.50
70468;BME280;57934;51.532;7.684;2023-02-28T01:51:15;101766.06;;;-1.78;87.96
70468;BME280;57934;51.532;7.684;2023-02-28T01:53:50;101769.63;;;-1.80;88.24
70468;BME280;57934;51.532;7.684;2023-02-28T01:56:24;101766.22;;;-1.81;88.54
70468;BME280;57934;51.532;7.684;2023-02-28T01:58:52;101771.47;;;-1.82;88.08
70468;BME280;57934;51.532;7.684;2023-02-28T02:01:20;101766.47;;;-1.85;88.45
70468;BME280;57934;51.532;7.684;2023-02-28T02:03:55;101769.09;;;-1.87;88.77
70468;BME280;57934;51.532;7.684;2023-02-28T02:06:27;101768.38;;;-1.89;88.85
70468;BME280;57934;51.532;7.684;2023-02-28T02:08:55;101763.34;;;-1.92;88.82
70468;BME280;57934;51.532;7.684;2023-02-28T02:11:22;101768.56;;;-1.94;88.75
70468;BME280;57934;51.532;7.684;2023-02-28T02:22:07;101762.81;;;-1.99;88.84
70468;BME280;57934;51.532;7.684;2023-02-28T02:36:27;101759.13;;;-2.12;88.97
70468;BME280;57934;51.532;7.684;2023-02-28T02:39:18;101756.66;;;-2.13;88.59
70468;BME280;57934;51.532;7.684;2023-02-28T02:41:48;101760.13;;;-2.14;89.30
70468;BME280;57934;51.532;7.684;2023-02-28T02:44:23;101754.94;;;-2.14;89.43
70468;BME280;57934;51.532;7.684;2023-02-28T02:46:55;101752.53;;;-2.18;89.20
70468;BME280;57934;51.532;7.684;2023-02-28T02:49:36;101761.19;;;-2.19;88.80
70468;BME280;57934;51.532;7.684;2023-02-28T02:52:06;101758.59;;;-2.19;88.75
70468;BME280;57934;51.532;7.684;2023-02-28T02:54:36;101761.28;;;-2.20;88.91
70468;BME280;57934;51.532;7.684;2023-02-28T02:57:07;101763.03;;;-2.21;89.73
70468;BME280;57934;51.532;7.684;2023-02-28T02:59:36;101765.66;;;-2.22;89.35
70468;BME280;57934;51.532;7.684;2023-02-28T03:02:06;101756.16;;;-2.22;89.06
70468;BME280;57934;51.532;7.684;2023-02-28T03:04:39;101751.91;;;-2.23;88.86
70468;BME280;57934;51.532;7.684;2023-02-28T03:07:07;101753.66;;;-2.23;88.59
70468;BME280;57934;51.532;7.684;2023-02-28T03:09:34;101754.59;;;-2.24;88.53
70468;BME280;57934;51.532;7.684;2023-02-28T03:12:02;101753.66;;;-2.23;88.49
70468;BME280;57934;51.532;7.684;2023-02-28T03:14:44;101751.31;;;-2.28;88.74
70468;BME280;57934;51.532;7.684;2023-02-28T03:17:49;101747.13;;;-2.30;88.42
70468;BME280;57934;51.532;7.684;2023-02-28T03:23:48;101753.34;;;-2.34;88.70
70468;BME280;57934;51.532;7.684;2023-02-28T03:26:22;101747.41;;;-2.36;88.65
70468;BME280;57934;51.532;7.684;2023-02-28T03:29:05;101746.81;;;-2.42;88.74
70468;BME280;57934;51.532;7.684;2023-02-28T03:31:42;101755.44;;;-2.43;88.83
70468;BME280;57934;51.532;7.684;2023-02-28T03:34:24;101746.19;;;-2.47;88.80
70468;BME280;57934;51.532;7.684;2023-02-28T03:36:55;101753.03;;;-2.46;88.98
70468;BME280;57934;51.532;7.684;2023-02-28T03:39:44;101756.50;;;-2.47;88.37
70468;BME280;57934;51.532;7.684;2023-02-28T03:42:15;101750.66;;;-2.50;88.46
70468;BME280;57934;51.532;7.684;2023-02-28T03:45:23;101759.22;;;-2.50;89.09
70468;BME280;57934;51.532;7.684;2023-02-28T03:47:55;101760.91;;;-2.49;88.58
70468;BME280;57934;51.532;7.684;2023-02-28T03:50:39;101755.63;;;-2.46;88.11
70468;BME280;57934;51.532;7.684;2023-02-28T03:53:12;101759.09;;;-2.47;87.84
70468;BME280;57934;51.532;7.684;2023-02-28T03:55:47;101754.91;;;-2.49;87.67
70468;BME280;57934;51.532;7.684;2023-02-28T03:58:35;101764.34;;;-2.48;87.40
70468;BME280;57934;51.532;7.684;2023-02-28T04:01:07;101758.25;;;-2.47;87.83
70468;BME280;57934;51.532;7.684;2023-02-28T04:03:36;101755.81;;;-2.50;87.79
70468;BME280;57934;51.532;7.684;2023-02-28T04:06:04;101760.22;;;-2.52;87.25
70468;BME280;57934;51.532;7.684;2023-02-28T04:08:31;101756.88;;;-2.54;87.29
70468;BME280;57934;51.532;7.684;2023-02-28T04:11:01;101756.78;;;-2.53;87.47
70468;BME280;57934;51.532;7.684;2023-02-28T04:13:30;101764.69;;;-2.56;87.73
70468;BME280;57934;51.532;7.684;2023-02-28T04:15:55;101766.72;;;-2.62;88.10
70468;BME280;57934;51.532;7.684;2023-02-28T04:18:21;101763.50;;;-2.68;88.55
70468;BME280;57934;51.532;7.684;2023-02-28T04:20:47;101765.25;;;-2.68;88.52
70468;BME280;57934;51.532;7.684;2023-02-28T04:23:13;101763.66;;;-2.71;88.69
70468;BME280;57934;51.532;7.684;2023-02-28T04:25:39;101768.06;;;-2.73;88.79
70468;BME280;57934;51.532;7.684;2023-02-28T04:28:06;101767.38;;;-2.76;89.10
70468;BME280;57934;51.532;7.684;2023-02-28T04:30:32;101761.44;;;-2.78;89.44
70468;BME280;57934;51.532;7.684;2023-02-28T04:32:58;101765.06;;;-2.82;90.16
70468;BME280;57934;51.532;7.684;2023-02-28T04:35:25;101765.88;;;-2.82;90.09
70468;BME280;57934;51.532;7.684;2023-02-28T04:37:51;101768.56;;;-2.83;90.62
70468;BME280;57934;51.532;7.684;2023-02-28T04:40:17;101773.91;;;-2.88;90.31
70468;BME280;57934;51.532;7.684;2023-02-28T04:42:43;101769.59;;;-2.88;90.38
70468;BME280;57934;51.532;7.684;2023-02-28T04:45:09;101765.41;;;-2.90;91.17
70468;BME280;57934;51.532;7.684;2023-02-28T04:47:36;101766.16;;;-2.88;90.85
70468;BME280;57934;51.532;7.684;2023-02-28T04:50:02;101770.56;;;-2.90;90.65
70468;BME280;57934;51.532;7.684;2023-02-28T04:52:29;101766.25;;;-2.90;91.16
70468;BME280;57934;51.532;7.684;2023-02-28T04:54:55;101767.34;;;-2.95;91.13
70468;BME280;57934;51.532;7.684;2023-02-28T04:57:21;101775.88;;;-2.93;91.11
70468;BME280;57934;51.532;7.684;2023-02-28T04:59:47;101774.25;;;-2.96;91.05
70468;BME280;57934;51.532;7.684;2023-02-28T05:02:13;101769.19;;;-2.97;90.93
70468;BME280;57934;51.532;7.684;2023-02-28T05:04:39;101775.31;;;-3.00;91.30
70468;BME280;57934;51.532;7.684;2023-02-28T05:07:05;101768.66;;;-3.05;91.52
70468;BME280;57934;51.532;7.684;2023-02-28T05:09:31;101766.09;;;-3.05;91.54
70468;BME280;57934;51.532;7.684;2023-02-28T05:11:58;101772.09;;;-3.05;91.84
70468;BME280;57934;51.532;7.684;2023-02-28T05:14:24;101778.03;;;-3.03;91.72
70468;BME280;57934;51.532;7.684;2023-02-28T05:16:51;101778.84;;;-3.02;91.81
70468;BME280;57934;51.532;7.684;2023-02-28T05:19:17;101776.41;;;-3.05;91.94
70468;BME280;57934;51.532;7.684;2023-02-28T05:21:51;101774.75;;;-3.06;91.76
70468;BME280;57934;51.532;7.684;2023-02-28T05:24:18;101779.84;;;-3.05;91.79
70468;BME280;57934;51.532;7.684;2023-02-28T05:26:54;101779.75;;;-3.03;92.14
70468;BME280;57934;51.532;7.684;2023-02-28T05:29:21;101777.41;;;-3.08;91.42
70468;BME280;57934;51.532;7.684;2023-02-28T05:31:47;101779.19;;;-3.10;91.80
70468;BME280;57934;51.532;7.684;2023-02-28T05:34:13;101786.03;;;-3.09;91.84
70468;BME280;57934;51.532;7.684;2023-02-28T05:36:41;101788.69;;;-3.10;91.39
70468;BME280;57934;51.532;7.684;2023-02-28T05:39:07;101789.50;;;-3.10;91.63
70468;BME280;57934;51.532;7.684;2023-02-28T05:41:40;101784.34;;;-3.10;91.70
70468;BME280;57934;51.532;7.684;2023-02-28T05:44:06;101788.75;;;-3.12;91.48
70468;BME280;57934;51.532;7.684;2023-02-28T05:46:32;101791.34;;;-3.12;91.65
70468;BME280;57934;51.532;7.684;2023-02-28T05:48:58;101798.16;;;-3.11;91.50
70468;BME280;57934;51.532;7.684;2023-02-28T05:51:25;101792.31;;;-3.15;90.94
70468;BME280;57934;51.532;7.684;2023-02-28T05:53:51;101788.06;;;-3.16;91.25
70468;BME280;57934;51.532;7.684;2023-02-28T05:56:17;101795.94;;;-3.19;90.93
70468;BME280;57934;51.532;7.684;2023-02-28T05:58:43;101789.25;;;-3.23;91.16
70468;BME280;57934;51.532;7.684;2023-02-28T06:01:42;101795.09;;;-3.19;90.90
70468;BME280;57934;51.532;7.684;2023-02-28T06:04:15;101796.75;;;-3.18;90.48
70468;BME280;57934;51.532;7.684;2023-02-28T06:06:47;101802.69;;;-3.16;90.99
70468;BME280;57934;51.532;7.684;2023-02-28T06:09:13;101794.94;;;-3.16;90.35
70468;BME280;57934;51.532;7.684;2023-02-28T06:11:39;101801.91;;;-3.18;90.21
70468;BME280;57934;51.532;7.684;2023-02-28T06:14:06;101801.84;;;-3.17;90.67
70468;BME280;57934;51.532;7.684;2023-02-28T06:16:34;101805.25;;;-3.16;90.71
70468;BME280;57934;51.532;7.684;2023-02-28T06:19:02;101812.16;;;-3.17;90.76
70468;BME280;57934;51.532;7.684;2023-02-28T06:21:29;101811.13;;;-3.13;90.32
70468;BME280;57934;51.532;7.684;2023-02-28T06:23:57;101808.69;;;-3.16;90.46
70468;BME280;57934;51.532;7.684;2023-02-28T06:26:24;101812.94;;;-3.15;90.00
70468;BME280;57934;51.532;7.684;2023-02-28T06:28:50;101815.44;;;-3.13;90.30
70468;BME280;57934;51.532;7.684;2023-02-28T06:31:17;101816.16;;;-3.09;90.40
70468;BME280;57934;51.532;7.684;2023-02-28T06:33:44;101820.56;;;-3.12;90.23
70468;BME280;57934;51.532;7.684;2023-02-28T06:36:12;101813.66;;;-3.11;90.12
70468;BME280;57934;51.532;7.684;2023-02-28T06:38:38;101824.78;;;-3.10;90.77
70468;BME280;57934;51.532;7.684;2023-02-28T06:41:05;101816.09;;;-3.08;90.88
70468;BME280;57934;51.532;7.684;2023-02-28T06:43:34;101825.50;;;-3.07;90.91
70468;BME280;57934;51.532;7.684;2023-02-28T06:46:03;101819.38;;;-3.04;90.23
70468;BME280;57934;51.532;7.684;2023-02-28T06:48:30;101819.38;;;-3.04;90.21
70468;BME280;57934;51.532;7.684;2023-02-28T06:51:09;101821.81;;;-3.01;90.14
70468;BME280;57934;51.532;7.684;2023-02-28T06:53:35;101826.06;;;-3.00;90.22
70468;BME280;57934;51.532;7.684;2023-02-28T06:56:07;101826.84;;;-2.98;89.72
70468;BME280;57934;51.532;7.684;2023-02-28T06:58:33;101832.75;;;-2.96;89.82
70468;BME280;57934;51.532;7.684;2023-02-28T07:01:00;101832.63;;;-2.93;89.47
70468;BME280;57934;51.532;7.684;2023-02-28T07:03:26;101840.13;;;-2.87;89.26
70468;BME280;57934;51.532;7.684;2023-02-28T07:05:52;101834.59;;;-2.79;89.42
70468;BME280;57934;51.532;7.684;2023-02-28T07:08:18;101841.03;;;-2.69;89.03
70468;BME280;57934;51.532;7.684;2023-02-28T07:10:44;101840.19;;;-2.51;88.52
70468;BME280;57934;51.532;7.684;2023-02-28T07:13:10;101844.59;;;-2.34;88.14
70468;BME280;57934;51.532;7.684;2023-02-28T07:15:37;101850.91;;;-2.22;87.08
70468;BME280;57934;51.532;7.684;2023-02-28T07:18:03;101848.59;;;-2.09;87.06
70468;BME280;57934;51.532;7.684;2023-02-28T07:20:30;101844.53;;;-1.96;86.61
70468;BME280;57934;51.532;7.684;2023-02-28T07:22:57;101850.00;;;-1.85;85.97
70468;BME280;57934;51.532;7.684;2023-02-28T07:25:24;101855.50;;;-1.74;85.62
70468;BME280;57934;51.532;7.684;2023-02-28T07:27:50;101846.97;;;-1.58;84.40
70468;BME280;57934;51.532;7.684;2023-02-28T07:30:16;101851.84;;;-1.52;84.20
70468;BME280;57934;51.532;7.684;2023-02-28T07:32:43;101860.13;;;-1.46;83.37
70468;BME280;57934;51.532;7.684;2023-02-28T07:35:09;101856.75;;;-1.30;82.92
70468;BME280;57934;51.532;7.684;2023-02-28T07:37:34;101847.09;;;-1.27;81.46
70468;BME280;57934;51.532;7.684;2023-02-28T07:40:05;101840.31;;;-1.12;81.33
70468;BME280;57934;51.532;7.684;2023-02-28T07:42:36;101842.06;;;-1.12;79.19
70468;BME280;57934;51.532;7.684;2023-02-28T07:45:04;101848.91;;;-1.11;78.74
70468;BME280;57934;51.532;7.684;2023-02-28T07:47:31;101835.53;;;-0.86;79.04
70468;BME280;57934;51.532;7.684;2023-02-28T07:49:57;101843.75;;;-0.62;77.74
70468;BME280;57934;51.532;7.684;2023-02-28T07:52:24;101852.03;;;-0.40;76.39
70468;BME280;57934;51.532;7.684;2023-02-28T07:54:50;101842.50;;;-0.23;75.62
70468;BME280;57934;51.532;7.684;2023-02-28T07:57:17;101848.63;;;-0.25;74.97
70468;BME280;57934;51.532;7.684;2023-02-28T07:59:43;101848.69;;;-0.26;74.87
70468;BME280;57934;51.532;7.684;2023-02-28T08:02:17;101846.09;;;-0.10;74.48
70468;BME280;57934;51.532;7.684;2023-02-28T08:04:45;101851.97;;;-0.38;72.18
70468;BME280;57934;51.532;7.684;2023-02-28T08:07:12;101850.53;;;-0.44;72.32
70468;BME280;57934;51.532;7.684;2023-02-28T08:09:41;101853.81;;;0.21;70.40
70468;BME280;57934;51.532;7.684;2023-02-28T08:12:08;101851.47;;;0.91;68.38
70468;BME280;57934;51.532;7.684;2023-02-28T08:14:34;101847.03;;;1.63;65.59
70468;BME280;57934;51.532;7.684;2023-02-28T08:17:00;101847.63;;;2.35;63.07
70468;BME280;57934;51.532;7.684;2023-02-28T08:19:27;101854.53;;;3.13;60.00
70468;BME280;57934;51.532;7.684;2023-02-28T08:21:52;101846.59;;;3.15;59.39
70468;BME280;57934;51.532;7.684;2023-02-28T08:24:18;101848.00;;;4.05;56.29
70468;BME280;57934;51.532;7.684;2023-02-28T08:26:44;101853.44;;;4.37;54.95
70468;BME280;57934;51.532;7.684;2023-02-28T08:29:10;101845.00;;;4.80;53.69
70468;BME280;57934;51.532;7.684;2023-02-28T08:31:37;101846.66;;;5.60;52.12
70468;BME280;57934;51.532;7.684;2023-02-28T08:34:07;101849.28;;;7.08;48.43
70468;BME280;57934;51.532;7.684;2023-02-28T08:36:33;101851.75;;;6.79;47.59
70468;BME280;57934;51.532;7.684;2023-02-28T08:38:59;101853.28;;;7.02;47.29
70468;BME280;57934;51.532;7.684;2023-02-28T08:41:25;101852.31;;;7.03;47.17
70468;BME280;57934;51.532;7.684;2023-02-28T08:43:52;101858.28;;;7.65;45.96
70468;BME280;57934;51.532;7.684;2023-02-28T08:46:17;101849.38;;;8.35;43.80
70468;BME280;57934;51.532;7.684;2023-02-28T08:48:43;101847.06;;;8.89;43.15
70468;BME280;57934;51.532;7.684;2023-02-28T08:51:13;101833.63;;;9.93;40.69
70468;BME280;57934;51.532;7.684;2023-02-28T08:53:40;101841.59;;;9.10;40.59
70468;BME280;57934;51.532;7.684;2023-02-28T08:56:09;101845.41;;;9.25;41.45
70468;BME280;57934;51.532;7.684;2023-02-28T08:58:36;101837.22;;;9.74;40.89
70468;BME280;57934;51.532;7.684;2023-02-28T09:01:13;101843.19;;;9.30;41.00
70468;BME280;57934;51.532;7.684;2023-02-28T09:03:41;101849.19;;;8.76;40.74
70468;BME280;57934;51.532;7.684;2023-02-28T09:06:08;101838.16;;;9.10;41.03
70468;BME280;57934;51.532;7.684;2023-02-28T09:08:35;101851.47;;;8.98;41.61
70468;BME280;57934;51.532;7.684;2023-02-28T09:11:01;101842.38;;;9.20;40.78
70468;BME280;57934;51.532;7.684;2023-02-28T09:13:28;101845.91;;;10.02;38.96
70468;BME280;57934;51.532;7.684;2023-02-28T09:15:57;101839.09;;;9.08;40.15
70468;BME280;57934;51.532;7.684;2023-02-28T09:18:23;101842.19;;;8.94;40.44
70468;BME280;57934;51.532;7.684;2023-02-28T09:20:49;101838.06;;;9.74;39.84
70468;BME280;57934;51.532;7.684;2023-02-28T09:23:16;101842.91;;;10.33;38.76
70468;BME280;57934;51.532;7.684;2023-02-28T09:25:50;101840.22;;;9.79;38.72
70468;BME280;57934;51.532;7.684;2023-02-28T09:28:17;101841.22;;;8.09;40.84
70468;BME280;57934;51.532;7.684;2023-02-28T09:30:50;101837.94;;;9.21;40.62
70468;BME280;57934;51.532;7.684;2023-02-28T09:33:17;101849.38;;;7.37;42.60
70468;BME280;57934;51.532;7.684;2023-02-28T09:35:47;101853.56;;;4.93;46.62
70468;BME280;57934;51.532;7.684;2023-02-28T09:38:13;101850.31;;;5.68;46.51
70468;BME280;57934;51.532;7.684;2023-02-28T09:40:48;101854.72;;;4.31;49.79
70468;BME280;57934;51.532;7.684;2023-02-28T09:43:16;101855.88;;;3.92;50.79
70468;BME280;57934;51.532;7.684;2023-02-28T09:45:49;101855.03;;;3.68;52.69
70468;BME280;57934;51.532;7.684;2023-02-28T09:48:28;101865.47;;;4.16;52.77
70468;BME280;57934;51.532;7.684;2023-02-28T09:51:04;101854.28;;;5.52;50.24
70468;BME280;57934;51.532;7.684;2023-02-28T09:53:33;101850.50;;;7.34;46.06
70468;BME280;57934;51.532;7.684;2023-02-28T09:56:07;101850.88;;;7.99;44.46
70468;BME280;57934;51.532;7.684;2023-02-28T09:58:49;101846.63;;;8.47;42.50
70468;BME280;57934;51.532;7.684;2023-02-28T10:01:37;101842.31;;;8.36;43.05
70468;BME280;57934;51.532;7.684;2023-02-28T10:06:51;101844.34;;;7.74;42.17
70468;BME280;57934;51.532;7.684;2023-02-28T10:09:21;101850.19;;;8.36;41.79
70468;BME280;57934;51.532;7.684;2023-02-28T10:11:54;101848.59;;;8.92;40.82
70468;BME280;57934;51.532;7.684;2023-02-28T10:14:24;101836.38;;;9.55;40.14
70468;BME280;57934;51.532;7.684;2023-02-28T10:16:55;101839.59;;;9.22;40.00
70468;BME280;57934;51.532;7.684;2023-02-28T10:22:33;101831.91;;;9.38;39.37
70468;BME280;57934;51.532;7.684;2023-02-28T10:25:00;101830.88;;;8.84;39.82
70468;BME280;57934;51.532;7.684;2023-02-28T10:27:30;101830.69;;;7.71;41.53
70468;BME280;57934;51.532;7.684;2023-02-28T10:29:58;101826.44;;;6.89;42.65
70468;BME280;57934;51.532;7.684;2023-02-28T10:32:30;101826.19;;;5.54;45.30
70468;BME280;57934;51.532;7.684;2023-02-28T10:35:00;101826.03;;;5.23;46.35
70468;BME280;57934;51.532;7.684;2023-02-28T10:37:27;101819.22;;;5.86;46.03
70468;BME280;57934;51.532;7.684;2023-02-28T10:39:53;101820.63;;;6.02;45.53
70468;BME280;57934;51.532;7.684;2023-02-28T10:42:22;101815.53;;;6.42;43.94
70468;BME280;57934;51.532;7.684;2023-02-28T10:45:12;101822.41;;;6.85;43.40
70468;BME280;57934;51.532;7.684;2023-02-28T10:47:49;101815.72;;;7.61;41.28
70468;BME280;57934;51.532;7.684;2023-02-28T10:53:23;101815.06;;;7.69;41.25
70468;BME280;57934;51.532;7.684;2023-02-28T10:59:00;101814.50;;;6.12;42.82
70468;BME280;57934;51.532;7.684;2023-02-28T11:03:56;101812.88;;;6.63;42.09
70468;BME280;57934;51.532;7.684;2023-02-28T11:06:26;101818.75;;;6.76;42.61
70468;BME280;57934;51.532;7.684;2023-02-28T11:08:54;101815.28;;;6.97;41.30
70468;BME280;57934;51.532;7.684;2023-02-28T11:11:22;101810.16;;;6.64;41.61
70468;BME280;57934;51.532;7.684;2023-02-28T11:13:53;101807.84;;;6.71;41.92
70468;BME280;57934;51.532;7.684;2023-02-28T11:16:20;101808.03;;;5.84;43.34
70468;BME280;57934;51.532;7.684;2023-02-28T11:18:54;101807.94;;;6.39;44.13
70468;BME280;57934;51.532;7.684;2023-02-28T11:21:30;101805.09;;;6.52;42.62
70468;BME280;57934;51.532;7.684;2023-02-28T11:24:04;101804.28;;;6.30;43.59
70468;BME280;57934;51.532;7.684;2023-02-28T11:26:44;101813.53;;;7.57;41.55
70468;BME280;57934;51.532;7.684;2023-02-28T11:31:40;101791.47;;;9.02;37.66
70468;BME280;57934;51.532;7.684;2023-02-28T11:34:23;101797.00;;;11.04;35.41
70468;BME280;57934;51.532;7.684;2023-02-28T11:36:51;101781.13;;;12.52;32.62
70468;BME280;57934;51.532;7.684;2023-02-28T11:39:19;101777.19;;;12.48;32.13
70468;BME280;57934;51.532;7.684;2023-02-28T11:47:48;101780.06;;;13.56;30.42
70468;BME280;57934;51.532;7.684;2023-02-28T11:52:55;101775.59;;;14.18;29.37
70468;BME280;57934;51.532;7.684;2023-02-28T11:55:39;101773.56;;;14.05;29.21
70468;BME280;57934;51.532;7.684;2023-02-28T12:01:16;101785.09;;;10.99;32.31
70468;BME280;57934;51.532;7.684;2023-02-28T12:03:56;101785.13;;;10.73;33.13
70468;BME280;57934;51.532;7.684;2023-02-28T12:06:38;101785.94;;;11.00;33.75
70468;BME280;57934;51.532;7.684;2023-02-28T12:15:25;101770.84;;;9.07;35.87
70468;BME280;57934;51.532;7.684;2023-02-28T12:18:22;101759.69;;;9.94;36.14
70468;BME280;57934;51.532;7.684;2023-02-28T12:21:03;101777.84;;;8.51;37.23
70468;BME280;57934;51.532;7.684;2023-02-28T12:26:40;101765.09;;;6.71;41.27
70468;BME280;57934;51.532;7.684;2023-02-28T12:29:29;101765.38;;;5.29;43.99
70468;BME280;57934;51.532;7.684;2023-02-28T12:32:05;101760.91;;;4.64;44.87
70468;BME280;57934;51.532;7.684;2023-02-28T12:34:38;101754.59;;;4.33;46.67
70468;BME280;57934;51.532;7.684;2023-02-28T12:37:10;101745.94;;;4.43;46.16
70468;BME280;57934;51.532;7.684;2023-02-28T12:39:47;101742.22;;;4.23;48.02
70468;BME280;57934;51.532;7.684;2023-02-28T12:42:27;101744.50;;;4.50;48.26
70468;BME280;57934;51.532;7.684;2023-02-28T12:44:58;101742.13;;;4.25;48.75
70468;BME280;57934;51.532;7.684;2023-02-28T12:47:25;101754.22;;;3.91;48.54
70468;BME280;57934;51.532;7.684;2023-02-28T12:55:20;101727.00;;;4.17;49.59
70468;BME280;57934;51.532;7.684;2023-02-28T12:57:57;101730.00;;;4.24;49.17
70468;BME280;57934;51.532;7.684;2023-02-28T13:00:33;101727.13;;;4.04;49.29
70468;BME280;57934;51.532;7.684;2023-02-28T13:09:23;101724.94;;;3.87;50.40
70468;BME280;57934;51.532;7.684;2023-02-28T13:11:53;101720.16;;;3.81;49.76
70468;BME280;57934;51.532;7.684;2023-02-28T13:19:26;101708.25;;;4.12;51.15
70468;BME280;57934;51.532;7.684;2023-02-28T13:21:54;101714.38;;;4.00;53.36
70468;BME280;57934;51.532;7.684;2023-02-28T13:27:32;101698.78;;;4.11;53.46
70468;BME280;57934;51.532;7.684;2023-02-28T13:29:59;101698.78;;;4.34;53.89
70468;BME280;57934;51.532;7.684;2023-02-28T13:45:21;101678.00;;;4.10;52.52
70468;BME280;57934;51.532;7.684;2023-02-28T13:48:29;101690.25;;;4.31;51.96
70468;BME280;57934;51.532;7.684;2023-02-28T13:50:56;101681.47;;;4.44;51.52
70468;BME280;57934;51.532;7.684;2023-02-28T13:53:47;101686.09;;;4.40;52.62
70468;BME280;57934;51.532;7.684;2023-02-28T13:56:40;101689.88;;;4.14;52.79
70468;BME280;57934;51.532;7.684;2023-02-28T14:00:18;101688.00;;;4.38;53.50
70468;BME280;57934;51.532;7.684;2023-02-28T14:02:45;101684.91;;;4.55;53.33
70468;BME280;57934;51.532;7.684;2023-02-28T14:05:19;101683.59;;;4.39;52.23
70468;BME280;57934;51.532;7.684;2023-02-28T14:07:56;101680.00;;;4.17;53.25
70468;BME280;57934;51.532;7.684;2023-02-28T14:10:28;101672.31;;;4.16;53.31
70468;BME280;57934;51.532;7.684;2023-02-28T14:15:39;101680.00;;;4.06;52.60
70468;BME280;57934;51.532;7.684;2023-02-28T14:18:18;101677.75;;;3.90;52.75
70468;BME280;57934;51.532;7.684;2023-02-28T14:20:47;101670.53;;;4.05;52.87
70468;BME280;57934;51.532;7.684;2023-02-28T14:26:28;101667.47;;;4.22;52.53
70468;BME280;57934;51.532;7.684;2023-02-28T14:32:02;101686.09;;;4.29;51.41
70468;BME280;57934;51.532;7.684;2023-02-28T14:34:52;101685.59;;;4.24;51.51
70468;BME280;57934;51.532;7.684;2023-02-28T14:37:27;101669.47;;;4.30;51.74
70468;BME280;57934;51.532;7.684;2023-02-28T14:39:55;101673.16;;;4.27;51.60
70468;BME280;57934;51.532;7.684;2023-02-28T14:42:28;101677.09;;;4.33;51.13
70468;BME280;57934;51.532;7.684;2023-02-28T14:44:55;101670.78;;;4.47;51.95
70468;BME280;57934;51.532;7.684;2023-02-28T14:47:31;101668.88;;;4.38;51.41
70468;BME280;57934;51.532;7.684;2023-02-28T14:49:59;101676.25;;;4.33;51.76
70468;BME280;57934;51.532;7.684;2023-02-28T14:52:28;101655.97;;;4.25;51.32
70468;BME280;57934;51.532;7.684;2023-02-28T14:55:06;101663.44;;;4.18;51.21